Time;durP1;ratioP1;P1;durP2;ratioP2;P2;SDS_P1;SDS_P2;PMS_P1;PMS_P2;Temp;Humidity;BMP_temperature;BMP_pressure;BME280_temperature;BME280_humidity;BME280_pressure;Samples;Min_cycle;Max_cycle;Signal;HPM_P1;HPM_P2
2022/09/29 00:01:39;;;;;;;3.80;1.98;;;;;;;10.44;100.00;97392.72;5060473;28;20116;-85
2022/09/29 00:04:05;;;;;;;4.85;2.00;;;;;;;10.47;100.00;97389.59;5063077;28;20466;-83
2022/09/29 00:06:31;;;;;;;3.50;2.40;;;;;;;10.39;100.00;97396.00;5060845;28;20020;-83
2022/09/29 00:08:57;;;;;;;4.00;2.20;;;;;;;10.54;100.00;97392.09;5063742;28;20098;-82
2022/09/29 00:11:22;;;;;;;5.00;2.47;;;;;;;10.57;100.00;97391.63;5059695;28;20025;-82
2022/09/29 00:13:48;;;;;;;4.38;2.70;;;;;;;10.68;100.00;97398.66;5060392;28;20044;-82
2022/09/29 00:16:14;;;;;;;4.68;2.70;;;;;;;10.61;100.00;97402.44;5059853;28;20449;-83
2022/09/29 00:18:40;;;;;;;6.43;3.10;;;;;;;10.69;100.00;97395.00;5045276;28;20105;-84
2022/09/29 00:21:16;;;;;;;6.63;3.47;;;;;;;10.82;100.00;97395.75;5061854;28;20470;-85
2022/09/29 00:23:41;;;;;;;6.88;2.92;;;;;;;10.75;100.00;97392.47;5057692;28;20091;-84
2022/09/29 00:26:08;;;;;;;8.68;3.05;;;;;;;10.83;100.00;97385.00;5065380;28;20395;-84
2022/09/29 00:28:36;;;;;;;6.95;2.90;;;;;;;10.80;100.00;97385.47;5061704;28;20151;-82
2022/09/29 00:31:03;;;;;;;9.57;3.50;;;;;;;10.86;100.00;97384.50;5061296;28;20067;-83
2022/09/29 00:33:33;;;;;;;3.83;3.15;;;;;;;10.90;100.00;97400.59;5060593;28;20032;-81
2022/09/29 00:36:11;;;;;;;11.50;3.78;;;;;;;10.84;100.00;97394.47;5061648;28;20032;-84
2022/09/29 00:38:37;;;;;;;8.88;3.10;;;;;;;10.99;100.00;97406.25;5060786;28;20057;-84
2022/09/29 00:41:03;;;;;;;9.35;3.40;;;;;;;10.94;100.00;97391.22;5063366;28;20064;-85
2022/09/29 00:44:06;;;;;;;10.93;3.50;;;;;;;11.00;100.00;97400.78;5061010;28;20040;-83
2022/09/29 00:46:57;;;;;;;9.05;3.53;;;;;;;10.99;100.00;97393.91;5044858;28;20036;-85
2022/09/29 00:49:46;;;;;;;10.77;3.70;;;;;;;10.93;100.00;97394.88;5057932;28;20025;-84
2022/09/29 00:52:23;;;;;;;10.30;3.55;;;;;;;11.02;100.00;97403.16;5061371;28;20033;-84
2022/09/29 00:54:55;;;;;;;8.27;3.83;;;;;;;11.03;100.00;97399.50;5061363;28;20028;-83
2022/09/29 00:57:25;;;;;;;10.63;4.05;;;;;;;10.93;100.00;97389.63;5060424;28;20028;-83
2022/09/29 01:00:02;;;;;;;10.48;4.40;;;;;;;10.93;100.00;97405.38;5059861;28;20052;-83
2022/09/29 01:02:30;;;;;;;13.55;5.28;;;;;;;10.95;100.00;97392.81;5063957;28;20039;-84
2022/09/29 01:04:58;;;;;;;14.50;3.92;;;;;;;10.83;100.00;97394.72;5045300;28;20028;-85
2022/09/29 01:07:26;;;;;;;9.00;3.83;;;;;;;10.80;100.00;97390.72;5061011;28;20498;-85
2022/09/29 01:09:55;;;;;;;7.65;3.65;;;;;;;10.82;100.00;97393.13;5061298;28;20033;-82
2022/09/29 01:12:21;;;;;;;9.88;3.47;;;;;;;10.80;100.00;97385.47;5057575;28;20049;-84
2022/09/29 01:14:48;;;;;;;15.68;4.57;;;;;;;10.82;100.00;97398.38;5058756;28;20060;-84
2022/09/29 01:17:14;;;;;;;10.23;4.22;;;;;;;10.83;100.00;97392.09;5061554;28;20037;-82
2022/09/29 01:20:26;;;;;;;8.32;3.72;;;;;;;11.03;100.00;97399.50;5062054;28;20159;-84
2022/09/29 01:23:06;;;;;;;8.98;4.00;;;;;;;11.05;100.00;97396.63;5029052;28;20099;-83
2022/09/29 01:25:56;;;;;;;19.30;3.72;;;;;;;11.14;100.00;97392.56;5056083;28;20076;-83
2022/09/29 01:28:34;;;;;;;7.45;2.95;;;;;;;11.09;100.00;97389.88;5063175;28;20105;-83
2022/09/29 01:31:12;;;;;;;15.98;3.95;;;;;;;11.05;100.00;97396.63;5065840;28;20039;-84
2022/09/29 01:34:05;;;;;;;8.65;3.30;;;;;;;11.06;100.00;97398.22;5062730;28;20028;-84
2022/09/29 01:36:41;;;;;;;12.65;3.70;;;;;;;11.16;100.00;97402.84;5069552;28;20036;-83
2022/09/29 01:39:18;;;;;;;10.95;3.53;;;;;;;11.18;100.00;97401.56;5065589;28;20063;-83
2022/09/29 01:41:56;;;;;;;8.25;3.40;;;;;;;11.08;100.00;97396.16;5066457;28;20041;-83
2022/09/29 01:44:28;;;;;;;9.40;3.03;;;;;;;11.04;100.00;97379.28;5063773;28;20029;-82
2022/09/29 01:47:22;;;;;;;11.80;3.13;;;;;;;11.10;100.00;97387.03;5066451;28;20060;-81
2022/09/29 01:50:06;;;;;;;13.18;3.35;;;;;;;11.04;100.00;97395.06;5055906;28;20044;-82
2022/09/29 01:52:37;;;;;;;15.13;4.63;;;;;;;11.17;100.00;97399.97;5064532;28;20071;-83
2022/09/29 01:55:09;;;;;;;9.30;3.30;;;;;;;11.07;100.00;97397.19;5064972;28;20029;-82
2022/09/29 01:57:58;;;;;;;10.45;3.15;;;;;;;11.02;100.00;97397.13;5063678;28;20060;-81
2022/09/29 02:00:30;;;;;;;9.40;3.47;;;;;;;10.95;100.00;97392.81;5063065;28;20048;-81
2022/09/29 02:03:05;;;;;;;10.18;3.80;;;;;;;10.94;100.00;97396.47;5064544;28;20032;-82
2022/09/29 02:05:44;;;;;;;15.18;4.05;;;;;;;10.94;100.00;97406.19;5059465;28;20036;-82
2022/09/29 02:08:20;;;;;;;11.68;3.50;;;;;;;10.99;100.00;97408.88;5063114;28;20029;-82
2022/09/29 02:11:04;;;;;;;10.07;3.28;;;;;;;11.09;100.00;97408.25;5063592;28;20050;-83
2022/09/29 02:13:35;;;;;;;5.40;3.38;;;;;;;11.12;100.00;97419.09;5061742;28;20028;-83
2022/09/29 02:16:03;;;;;;;16.58;3.47;;;;;;;10.99;100.00;97407.03;5064567;28;20425;-82
2022/09/29 02:18:40;;;;;;;8.55;3.42;;;;;;;10.93;100.00;97417.72;5068053;28;20037;-82
2022/09/29 02:21:08;;;;;;;17.48;4.68;;;;;;;11.09;100.00;97408.25;5062777;28;20025;-82
2022/09/29 02:23:33;;;;;;;15.60;4.05;;;;;;;11.09;100.00;97408.25;5062333;28;20029;-83
2022/09/29 02:25:59;;;;;;;15.85;3.72;;;;;;;11.13;100.00;97412.81;5061851;28;20039;-83
2022/09/29 02:28:25;;;;;;;13.25;3.70;;;;;;;11.11;100.00;97406.19;5066887;28;20017;-83
2022/09/29 02:30:51;;;;;;;9.23;3.70;;;;;;;11.11;100.00;97422.75;5061471;28;20024;-82
2022/09/29 02:33:22;;;;;;;11.73;3.85;;;;;;;11.27;100.00;97421.16;5067168;28;20036;-82
2022/09/29 02:36:20;;;;;;;10.52;4.45;;;;;;;11.21;100.00;97424.75;5063145;28;20035;-83
2022/09/29 02:38:45;;;;;;;7.78;3.80;;;;;;;11.26;100.00;97429.25;5064479;28;20025;-83
2022/09/29 02:41:29;;;;;;;10.90;4.05;;;;;;;11.21;100.00;97440.50;5061264;28;20535;-83
2022/09/29 02:43:57;;;;;;;15.50;4.55;;;;;;;11.25;100.00;97449.50;5063887;28;20086;-83
2022/09/29 02:47:07;;;;;;;11.00;4.32;;;;;;;11.23;100.00;97430.56;5067083;28;20032;-83
2022/09/29 02:49:49;;;;;;;10.60;4.15;;;;;;;11.12;100.00;97439.28;5050514;28;20062;-83
2022/09/29 02:52:39;;;;;;;8.57;4.93;;;;;;;11.11;100.00;97443.75;5061931;28;20080;-83
2022/09/29 02:55:36;;;;;;;6.47;3.78;;;;;;;11.24;100.00;97462.84;5060726;28;20043;-83
2022/09/29 02:58:24;;;;;;;9.43;3.63;;;;;;;11.29;100.00;97452.41;5061033;28;21880;-83
2022/09/29 03:00:50;;;;;;;16.52;4.50;;;;;;;11.17;100.00;97435.94;5059932;28;20120;-83
2022/09/29 03:03:15;;;;;;;15.40;4.53;;;;;;;11.26;100.00;97451.09;5065241;28;20448;-83
2022/09/29 03:05:41;;;;;;;12.23;4.57;;;;;;;11.21;100.00;97453.63;5060962;28;20028;-84
2022/09/29 03:08:07;;;;;;;14.88;4.55;;;;;;;11.25;100.00;97465.25;5067707;28;20021;-81
2022/09/29 03:10:32;;;;;;;9.07;4.25;;;;;;;11.17;100.00;97454.34;5046251;28;20113;-83
2022/09/29 03:12:58;;;;;;;12.52;4.72;;;;;;;11.34;100.00;97468.28;5063193;28;20033;-82
2022/09/29 03:15:24;;;;;;;10.85;4.57;;;;;;;11.25;100.00;97478.38;5057323;28;20048;-82
2022/09/29 03:17:53;;;;;;;9.80;4.03;;;;;;;11.34;100.00;97477.97;5062161;28;20150;-82
2022/09/29 03:20:19;;;;;;;11.25;4.55;;;;;;;11.20;100.00;97482.75;5061686;28;20502;-84
2022/09/29 03:22:45;;;;;;;15.18;4.30;;;;;;;11.17;100.00;97476.13;5063175;28;20038;-84
2022/09/29 03:25:11;;;;;;;9.40;3.83;;;;;;;11.10;100.00;97483.38;5064216;28;20397;-84
2022/09/29 03:27:37;;;;;;;10.50;3.72;;;;;;;11.20;100.00;97480.94;5063734;28;20055;-85
2022/09/29 03:30:04;;;;;;;16.10;4.00;;;;;;;11.10;100.00;97499.13;5060056;28;20055;-83
2022/09/29 03:32:29;;;;;;;13.07;4.20;;;;;;;11.06;100.00;97488.28;5061700;28;20033;-83
2022/09/29 03:34:55;;;;;;;7.10;3.70;;;;;;;11.06;100.00;97485.66;5063933;28;20036;-83
2022/09/29 03:37:21;;;;;;;7.85;3.83;;;;;;;11.31;100.00;97507.34;5064081;28;20422;-83
2022/09/29 03:39:46;;;;;;;14.23;3.72;;;;;;;11.16;100.00;97500.78;5061369;28;20025;-82
2022/09/29 03:42:12;;;;;;;10.25;2.90;;;;;;;11.16;100.00;97487.66;5059145;28;20108;-82
2022/09/29 03:44:38;;;;;;;13.23;2.90;;;;;;;11.11;100.00;97495.47;5064103;28;20395;-82
2022/09/29 03:47:04;;;;;;;11.43;3.88;;;;;;;11.11;100.00;97484.97;5062852;28;20043;-82
2022/09/29 03:49:30;;;;;;;9.43;3.33;;;;;;;11.18;100.00;97490.06;5057442;28;20021;-83
2022/09/29 03:51:58;;;;;;;14.98;3.20;;;;;;;11.09;100.00;97497.53;5064264;28;20479;-82
2022/09/29 03:54:26;;;;;;;18.10;3.38;;;;;;;10.95;100.00;97504.91;5045021;28;20048;-82
2022/09/29 03:56:51;;;;;;;9.88;3.28;;;;;;;10.98;100.00;97493.94;5060663;28;20029;-83
2022/09/29 03:59:18;;;;;;;9.68;3.33;;;;;;;11.00;100.00;97490.03;5060568;28;20576;-82
2022/09/29 04:01:43;;;;;;;6.82;3.00;;;;;;;11.02;100.00;97496.88;5061030;28;20053;-84
2022/09/29 04:04:09;;;;;;;11.25;3.40;;;;;;;10.89;100.00;97492.69;5061102;28;20037;-82
2022/09/29 04:06:35;;;;;;;23.52;4.15;;;;;;;10.99;100.00;97501.56;5063288;28;20474;-83
2022/09/29 04:09:01;;;;;;;5.07;2.70;;;;;;;11.00;100.00;97513.69;5061882;28;20028;-83
2022/09/29 04:11:27;;;;;;;13.80;3.63;;;;;;;11.06;100.00;97516.38;5060840;28;20383;-83
2022/09/29 04:13:53;;;;;;;13.45;4.10;;;;;;;11.08;100.00;97501.19;5063170;28;20040;-84
2022/09/29 04:16:19;;;;;;;7.93;3.38;;;;;;;11.22;100.00;97502.50;5065379;28;20029;-83
2022/09/29 04:18:45;;;;;;;8.10;3.67;;;;;;;11.00;100.00;97510.25;5061954;28;20099;-82
2022/09/29 04:21:11;;;;;;;10.40;3.60;;;;;;;11.04;100.00;97521.84;5060930;28;20054;-84
2022/09/29 04:23:37;;;;;;;7.38;3.92;;;;;;;10.93;100.00;97536.63;5059963;28;20025;-84
2022/09/29 04:26:03;;;;;;;10.10;3.40;;;;;;;11.02;100.00;97528.41;5062322;28;20471;-83
2022/09/29 04:28:35;;;;;;;11.73;3.50;;;;;;;10.91;100.00;97537.91;5058698;28;20028;-84
2022/09/29 04:31:02;;;;;;;14.73;3.72;;;;;;;11.13;100.00;97533.59;5063032;28;20067;-83
2022/09/29 04:33:28;;;;;;;10.93;3.85;;;;;;;11.09;100.00;97548.19;5061089;28;20028;-82
2022/09/29 04:35:55;;;;;;;8.75;2.85;;;;;;;11.06;100.00;97540.03;5058905;28;20364;-83
2022/09/29 04:38:21;;;;;;;5.55;2.72;;;;;;;11.13;100.00;97545.91;5058814;28;20024;-84
2022/09/29 04:40:47;;;;;;;9.95;2.83;;;;;;;11.09;100.00;97552.69;5061810;28;20110;-83
2022/09/29 04:43:13;;;;;;;10.15;2.72;;;;;;;10.99;100.00;97554.06;5058448;28;20108;-82
2022/09/29 04:45:40;;;;;;;4.43;2.20;;;;;;;11.22;100.00;97554.22;5061441;28;20508;-83
2022/09/29 04:48:11;;;;;;;9.82;2.38;;;;;;;11.13;100.00;97562.47;5059290;28;20032;-83
2022/09/29 04:50:37;;;;;;;12.90;2.67;;;;;;;11.19;100.00;97554.69;5064543;28;20087;-83
2022/09/29 04:53:03;;;;;;;6.90;3.28;;;;;;;11.05;100.00;97554.19;5060721;28;20066;-82
2022/09/29 04:55:29;;;;;;;12.68;2.25;;;;;;;11.07;100.00;97563.41;5061601;28;20039;-83
2022/09/29 04:57:54;;;;;;;6.93;2.00;;;;;;;11.10;100.00;97572.66;5061492;28;20040;-82
2022/09/29 05:00:20;;;;;;;9.35;2.20;;;;;;;11.11;100.00;97576.88;5056773;28;20482;-82
2022/09/29 05:02:45;;;;;;;7.13;1.92;;;;;;;11.16;100.00;97582.22;5064092;28;20028;-84
2022/09/29 05:05:11;;;;;;;11.95;2.97;;;;;;;11.07;100.00;97578.38;5059870;28;20025;-83
2022/09/29 05:07:38;;;;;;;7.18;1.60;;;;;;;11.08;100.00;97585.22;5060864;28;20052;-83
2022/09/29 05:10:06;;;;;;;10.20;2.28;;;;;;;11.12;100.00;97581.91;5060106;28;20143;-83
2022/09/29 05:12:31;;;;;;;7.00;1.80;;;;;;;11.10;100.00;97586.59;5059029;28;20470;-82
2022/09/29 05:14:57;;;;;;;3.85;1.48;;;;;;;11.09;100.00;97581.56;5057146;28;20063;-83
2022/09/29 05:17:22;;;;;;;7.63;2.50;;;;;;;11.15;100.00;97585.88;5060272;28;20471;-82
2022/09/29 05:19:48;;;;;;;7.93;1.95;;;;;;;11.23;100.00;97598.63;5062543;28;20123;-82
2022/09/29 05:22:14;;;;;;;9.00;1.40;;;;;;;11.20;100.00;97588.59;5059090;28;20032;-82
2022/09/29 05:24:39;;;;;;;7.55;1.73;;;;;;;11.07;100.00;97589.66;5061039;28;20035;-81
2022/09/29 05:27:05;;;;;;;8.52;1.70;;;;;;;11.12;100.00;97602.91;5059404;28;20083;-81
2022/09/29 05:29:30;;;;;;;5.63;1.70;;;;;;;11.11;100.00;97605.75;5063530;28;20028;-81
2022/09/29 05:31:56;;;;;;;4.68;1.70;;;;;;;11.28;100.00;97613.69;5057862;28;20021;-83
2022/09/29 05:34:21;;;;;;;10.77;1.90;;;;;;;11.11;100.00;97616.25;5061099;28;20032;-83
2022/09/29 05:36:47;;;;;;;7.15;1.95;;;;;;;10.95;100.00;97629.06;5063698;28;20033;-83
2022/09/29 05:39:13;;;;;;;8.80;1.80;;;;;;;11.11;100.00;97626.75;5059260;28;20033;-81
2022/09/29 05:41:38;;;;;;;4.68;1.63;;;;;;;11.04;100.00;97631.34;5056117;28;20604;-81
2022/09/29 05:44:04;;;;;;;7.68;1.80;;;;;;;11.06;100.00;97631.91;5060971;28;20078;-81
2022/09/29 05:46:30;;;;;;;8.55;2.40;;;;;;;11.08;100.00;97621.97;5060575;28;20466;-83
2022/09/29 05:48:57;;;;;;;11.55;2.55;;;;;;;11.14;100.00;97631.53;5061079;28;20387;-84
2022/09/29 05:51:25;;;;;;;10.52;3.15;;;;;;;11.25;100.00;97640.41;5065072;28;20047;-84
2022/09/29 05:53:53;;;;;;;9.90;2.92;;;;;;;11.15;100.00;97638.38;5060543;28;20144;-83
2022/09/29 05:56:24;;;;;;;7.43;2.70;;;;;;;11.24;100.00;97646.69;5065005;28;20036;-82
2022/09/29 05:58:51;;;;;;;8.75;2.85;;;;;;;10.96;100.00;97641.16;5056985;28;20036;-83
2022/09/29 06:01:20;;;;;;;6.75;2.72;;;;;;;11.13;100.00;97645.69;5059483;28;20497;-83
2022/09/29 06:03:46;;;;;;;13.32;3.13;;;;;;;10.97;100.00;97632.25;5058846;28;20029;-82
2022/09/29 06:06:15;;;;;;;6.10;2.60;;;;;;;11.16;100.00;97661.00;5059933;28;20029;-81
2022/09/29 06:08:42;;;;;;;7.80;2.88;;;;;;;11.13;100.00;97656.22;5059203;28;20029;-85
2022/09/29 06:11:15;;;;;;;9.60;2.60;;;;;;;11.26;100.00;97666.47;5058177;28;20461;-84
2022/09/29 06:13:43;;;;;;;9.57;3.10;;;;;;;11.16;100.00;97676.75;5066785;28;20028;-83
2022/09/29 06:16:11;;;;;;;5.28;1.98;;;;;;;11.18;100.00;97679.94;5060518;28;20031;-82
2022/09/29 06:18:37;;;;;;;8.63;2.35;;;;;;;11.18;100.00;97690.44;5043739;28;20028;-84
2022/09/29 06:21:05;;;;;;;9.52;2.38;;;;;;;11.11;100.00;97668.78;5065022;28;20040;-83
2022/09/29 06:23:32;;;;;;;9.75;2.10;;;;;;;11.06;100.00;97687.06;5062280;28;20035;-83
2022/09/29 06:26:00;;;;;;;6.72;2.50;;;;;;;11.11;100.00;97684.53;5062757;28;20123;-83
2022/09/29 06:28:27;;;;;;;10.70;3.17;;;;;;;11.06;100.00;97700.19;5064997;28;20020;-83
2022/09/29 06:31:02;;;;;;;14.15;3.00;;;;;;;10.81;100.00;97675.00;5061572;28;20391;-84
2022/09/29 06:33:29;;;;;;;5.65;2.58;;;;;;;10.91;100.00;97684.91;5062671;28;20445;-85
2022/09/29 06:38:40;;;;;;;8.32;2.00;;;;;;;11.11;100.00;97708.97;5059775;28;20036;-84
2022/09/29 06:41:07;;;;;;;7.30;2.40;;;;;;;10.96;100.00;97698.94;5043358;28;20082;-82
2022/09/29 06:43:32;;;;;;;7.15;2.30;;;;;;;11.07;100.00;97715.69;5043209;28;20393;-86
2022/09/29 06:45:58;;;;;;;2.85;1.63;;;;;;;11.07;100.00;97728.03;5045644;28;20020;-85
2022/09/29 06:48:24;;;;;;;13.93;2.30;;;;;;;11.15;100.00;97717.16;5060048;28;20025;-85
2022/09/29 06:50:49;;;;;;;5.57;2.15;;;;;;;11.31;100.00;97751.66;5065316;28;20475;-86
2022/09/29 06:53:15;;;;;;;8.40;2.38;;;;;;;11.13;100.00;97740.25;5065064;28;20078;-85
2022/09/29 06:55:51;;;;;;;5.45;2.22;;;;;;;11.29;100.00;97750.06;5059900;28;20111;-85
2022/09/29 06:58:17;;;;;;;4.15;2.10;;;;;;;11.15;100.00;97756.56;5063287;28;20108;-84
2022/09/29 07:00:42;;;;;;;8.20;2.30;;;;;;;11.17;100.00;97770.25;5061157;28;20144;-84
2022/09/29 07:03:07;;;;;;;6.70;2.08;;;;;;;11.09;100.00;97773.25;5064428;28;20039;-83
2022/09/29 07:05:33;;;;;;;6.93;2.20;;;;;;;11.13;100.00;97759.44;5064391;28;20028;-84
2022/09/29 07:08:00;;;;;;;8.57;2.90;;;;;;;11.18;100.00;97763.97;5065725;28;20033;-83
2022/09/29 07:10:26;;;;;;;8.82;2.45;;;;;;;11.13;100.00;97769.13;5044738;28;20039;-82
2022/09/29 07:12:54;;;;;;;8.80;2.90;;;;;;;11.35;100.00;97779.03;5062320;28;20028;-83
2022/09/29 07:15:20;;;;;;;9.63;3.80;;;;;;;11.22;100.00;97777.47;5063423;28;20041;-83
2022/09/29 07:17:49;;;;;;;12.77;2.80;;;;;;;11.19;100.00;97780.56;5064387;28;20029;-84
2022/09/29 07:20:15;;;;;;;9.65;2.63;;;;;;;11.41;100.00;97809.69;5064373;28;20029;-83
2022/09/29 07:22:40;;;;;;;9.27;2.30;;;;;;;11.36;100.00;97801.66;5060208;28;20032;-83
2022/09/29 07:25:06;;;;;;;4.50;2.75;;;;;;;11.41;100.00;97801.78;5064223;28;20104;-82
2022/09/29 07:27:33;;;;;;;7.32;2.90;;;;;;;11.42;100.00;97817.31;5060310;28;20037;-82
2022/09/29 07:29:58;;;;;;;10.90;3.92;;;;;;;11.46;100.00;97822.91;5065344;28;20021;-82
2022/09/29 07:32:25;;;;;;;11.13;3.58;;;;;;;11.54;100.00;97808.63;5061153;28;20492;-81
2022/09/29 07:34:51;;;;;;;7.93;3.47;;;;;;;11.55;100.00;97826.78;5062616;28;20085;-85
2022/09/29 07:37:16;;;;;;;8.20;4.32;;;;;;;11.61;100.00;97830.31;5065849;28;20107;-86
2022/09/29 07:39:45;;;;;;;10.85;4.10;;;;;;;11.64;100.00;97834.31;5060911;28;20055;-86
2022/09/29 07:42:11;;;;;;;11.88;4.50;;;;;;;11.51;100.00;97830.91;5058573;28;20028;-87
2022/09/29 07:44:37;;;;;;;6.50;3.72;;;;;;;11.70;100.00;97836.00;5062924;28;20035;-83
2022/09/29 07:47:02;;;;;;;10.73;3.47;;;;;;;11.70;100.00;97833.38;5062364;28;20033;-85
2022/09/29 07:49:27;;;;;;;7.55;3.28;;;;;;;11.70;100.00;97839.47;5063171;28;20071;-84
2022/09/29 07:51:53;;;;;;;5.97;3.85;;;;;;;11.78;100.00;97850.63;5065856;28;20029;-84
2022/09/29 07:54:19;;;;;;;14.50;4.70;;;;;;;11.60;100.00;97838.44;5064039;28;20035;-85
2022/09/29 07:56:45;;;;;;;15.00;4.18;;;;;;;11.74;100.00;97855.53;5064475;28;20028;-86
2022/09/29 07:59:12;;;;;;;8.98;4.60;;;;;;;11.62;100.00;97870.53;5060013;28;20043;-86
2022/09/29 08:01:37;;;;;;;6.25;3.53;;;;;;;11.81;100.00;97876.47;5063947;28;20032;-85
2022/09/29 08:04:03;;;;;;;10.23;4.05;;;;;;;11.84;100.00;97868.09;5057831;28;20028;-84
2022/09/29 08:06:29;;;;;;;8.77;3.28;;;;;;;11.98;100.00;97882.59;5065123;28;20078;-82
2022/09/29 08:08:55;;;;;;;10.05;3.22;;;;;;;11.83;100.00;97871.75;5062721;28;21434;-83
2022/09/29 08:11:21;;;;;;;10.93;3.83;;;;;;;11.94;100.00;97876.22;5060414;28;20052;-86
2022/09/29 08:13:49;;;;;;;6.10;3.83;;;;;;;12.11;100.00;97886.03;5042680;28;20442;-84
2022/09/29 08:16:15;;;;;;;10.82;3.53;;;;;;;12.02;100.00;97874.28;5060959;28;20046;-85
2022/09/29 08:18:41;;;;;;;14.48;3.22;;;;;;;12.10;100.00;97877.34;5060747;28;20470;-83
2022/09/29 08:21:10;;;;;;;11.75;2.90;;;;;;;12.09;100.00;97878.38;5060135;28;20048;-84
2022/09/29 08:23:37;;;;;;;10.82;3.58;;;;;;;12.03;100.00;97895.09;5062685;28;20039;-83
2022/09/29 08:26:17;;;;;;;11.95;2.80;;;;;;;12.03;100.00;97900.34;5064871;28;20433;-83
2022/09/29 08:28:43;;;;;;;9.02;2.15;;;;;;;12.07;100.00;97896.22;5063930;28;20032;-83
2022/09/29 08:31:13;;;;;;;8.80;3.05;;;;;;;12.04;100.00;97901.94;5061408;28;20029;-84
2022/09/29 08:33:39;;;;;;;9.20;2.60;;;;;;;12.07;100.00;97903.28;5056307;28;20099;-83
2022/09/29 08:36:13;;;;;;;9.55;2.90;;;;;;;12.06;100.00;97902.50;5059726;28;20029;-83
2022/09/29 08:38:50;;;;;;;8.18;2.53;;;;;;;12.21;100.00;97902.00;5059907;28;20035;-83
2022/09/29 08:41:22;;;;;;;8.80;2.65;;;;;;;12.53;100.00;97916.56;5060757;28;20111;-83
2022/09/29 08:43:53;;;;;;;6.10;2.50;;;;;;;12.67;100.00;97928.41;5058433;28;20144;-83
2022/09/29 08:46:31;;;;;;;6.93;2.97;;;;;;;12.79;100.00;97925.72;5057555;28;20033;-83
2022/09/29 08:49:02;;;;;;;9.85;2.38;;;;;;;12.68;100.00;97922.09;5058937;28;20028;-83
2022/09/29 08:51:31;;;;;;;6.93;2.75;;;;;;;12.82;100.00;97932.34;5062335;28;20108;-83
2022/09/29 08:54:01;;;;;;;10.40;2.65;;;;;;;12.95;100.00;97933.91;5060544;28;20025;-83
2022/09/29 08:56:28;;;;;;;8.20;2.20;;;;;;;13.12;100.00;97926.81;5058312;28;20025;-82
2022/09/29 08:58:54;;;;;;;3.95;2.20;;;;;;;13.55;100.00;97944.88;5056746;28;20051;-82
2022/09/29 09:01:37;;;;;;;5.80;2.50;;;;;;;13.61;100.00;97948.41;5063046;28;20094;-83
2022/09/29 09:04:24;;;;;;;10.43;2.38;;;;;;;13.64;100.00;97948.69;5066487;28;20104;-84
2022/09/29 09:06:59;;;;;;;9.02;2.65;;;;;;;13.37;100.00;97954.59;5063120;28;20032;-83
2022/09/29 09:09:31;;;;;;;6.18;2.30;;;;;;;13.21;100.00;97961.47;5060111;28;20020;-84
2022/09/29 09:12:15;;;;;;;6.95;2.08;;;;;;;13.59;100.00;97963.69;5054860;28;20040;-83
2022/09/29 09:14:57;;;;;;;12.27;2.30;;;;;;;13.79;100.00;97953.44;5062425;28;20071;-83
2022/09/29 09:17:50;;;;;;;6.68;2.17;;;;;;;14.08;100.00;97968.31;5061115;28;20116;-85
2022/09/29 09:20:19;;;;;;;3.60;1.83;;;;;;;14.42;100.00;97969.00;5058066;28;20039;-84
2022/09/29 09:22:50;;;;;;;6.53;1.85;;;;;;;14.10;100.00;97974.94;5061362;28;20036;-84
2022/09/29 09:25:34;;;;;;;3.85;1.90;;;;;;;14.24;100.00;97974.59;5064688;28;20037;-81
2022/09/29 09:28:24;;;;;;;4.65;2.40;;;;;;;14.21;100.00;97973.22;5058494;28;20049;-83
2022/09/29 09:31:02;;;;;;;9.75;2.55;;;;;;;14.43;100.00;97986.44;5062041;28;20043;-83
2022/09/29 09:34:00;;;;;;;6.18;2.10;;;;;;;14.64;100.00;97981.41;5057391;28;20360;-84
2022/09/29 09:36:32;;;;;;;6.00;2.45;;;;;;;14.32;100.00;97979.44;5043266;28;20119;-83
2022/09/29 09:39:10;;;;;;;11.38;3.13;;;;;;;14.44;100.00;97979.31;5058416;28;20040;-85
2022/09/29 09:41:39;;;;;;;4.03;2.58;;;;;;;14.34;100.00;97979.97;5055104;28;20029;-85
2022/09/29 09:44:14;;;;;;;6.75;2.40;;;;;;;14.36;100.00;97985.03;5059303;28;20024;-84
2022/09/29 09:46:53;;;;;;;7.00;1.90;;;;;;;14.13;100.00;97995.56;5062473;28;20036;-84
2022/09/29 09:49:30;;;;;;;4.78;1.67;;;;;;;13.94;100.00;98015.34;5065135;28;20085;-83
2022/09/29 09:51:55;;;;;;;5.40;2.13;;;;;;;13.90;100.00;98008.94;5066190;28;20029;-84
2022/09/29 09:54:30;;;;;;;4.32;1.77;;;;;;;13.81;100.00;97996.19;5067758;28;20169;-84
2022/09/29 09:57:01;;;;;;;4.72;1.88;;;;;;;14.11;100.00;98007.41;5062158;28;20033;-85
2022/09/29 09:59:52;;;;;;;3.58;1.30;;;;;;;14.16;100.00;97993.50;5061645;28;20549;-84
2022/09/29 10:02:19;;;;;;;3.65;1.20;;;;;;;14.28;100.00;98002.09;5063058;28;20036;-84
2022/09/29 10:04:51;;;;;;;7.97;1.75;;;;;;;14.45;100.00;97994.13;5064159;28;20043;-84
2022/09/29 10:07:24;;;;;;;6.50;1.80;;;;;;;14.35;100.00;97986.88;5062937;28;20479;-84
2022/09/29 10:09:57;;;;;;;3.88;2.05;;;;;;;14.46;100.00;97994.91;5064963;28;20029;-83
2022/09/29 10:12:32;;;;;;;6.32;2.20;;;;;;;14.48;100.00;98006.03;5065470;28;20120;-83
2022/09/29 10:15:04;;;;;;;3.88;1.90;;;;;;;14.54;100.00;98002.38;5060587;28;20037;-83
2022/09/29 10:17:38;;;;;;;3.88;1.75;;;;;;;14.75;100.00;98011.38;5059020;28;20029;-83
2022/09/29 10:20:06;;;;;;;2.85;1.95;;;;;;;14.81;100.00;98012.25;5062839;28;20020;-83
2022/09/29 10:22:33;;;;;;;4.57;2.00;;;;;;;14.90;100.00;98002.03;5063367;28;20079;-83
2022/09/29 10:25:14;;;;;;;6.45;2.30;;;;;;;15.03;100.00;98006.13;5060503;28;20390;-83
2022/09/29 10:27:42;;;;;;;2.60;2.33;;;;;;;14.88;100.00;98007.56;5063960;28;20061;-82
2022/09/29 10:30:31;;;;;;;3.10;2.03;;;;;;;15.22;100.00;98012.66;5061730;28;20431;-83
2022/09/29 10:32:59;;;;;;;6.25;1.90;;;;;;;15.52;100.00;98013.97;5054951;28;20558;-83
2022/09/29 10:35:36;;;;;;;5.75;2.63;;;;;;;15.66;100.00;98009.06;5062712;28;20473;-81
2022/09/29 10:38:06;;;;;;;2.30;2.03;;;;;;;16.01;100.00;98014.88;5060596;28;20449;-83
2022/09/29 10:40:33;;;;;;;2.97;2.20;;;;;;;16.04;100.00;98016.25;5063964;28;20491;-83
2022/09/29 10:43:22;;;;;;;2.28;1.95;;;;;;;16.34;100.00;98020.91;5059758;28;20040;-83
2022/09/29 10:45:49;;;;;;;2.72;2.17;;;;;;;16.59;100.00;98018.59;5062845;28;20036;-83
2022/09/29 10:48:15;;;;;;;3.25;2.40;;;;;;;16.84;100.00;98023.19;5060272;28;20040;-83
2022/09/29 10:50:48;;;;;;;3.30;2.40;;;;;;;17.02;100.00;98034.41;5060284;28;20547;-82
2022/09/29 10:53:33;;;;;;;4.15;1.98;;;;;;;16.87;100.00;98024.53;5059678;28;20029;-83
2022/09/29 10:56:00;;;;;;;4.60;2.10;;;;;;;16.82;100.00;98022.66;5060097;28;20033;-82
2022/09/29 10:58:42;;;;;;;6.43;2.45;;;;;;;17.04;100.00;98035.75;5062017;28;20025;-83
2022/09/29 11:01:13;;;;;;;2.72;2.15;;;;;;;17.12;100.00;98043.19;5066124;28;20028;-83
2022/09/29 11:03:47;;;;;;;3.00;2.42;;;;;;;17.15;100.00;98033.94;5064101;28;20108;-82
2022/09/29 11:06:14;;;;;;;3.42;2.20;;;;;;;17.22;100.00;98050.38;5062571;28;20364;-81
2022/09/29 11:09:00;;;;;;;4.97;2.35;;;;;;;17.30;100.00;98042.97;5061168;28;20092;-83
2022/09/29 11:11:31;;;;;;;4.93;2.50;;;;;;;17.15;100.00;98047.19;5061211;28;20479;-83
2022/09/29 11:13:58;;;;;;;3.63;2.60;;;;;;;17.04;100.00;98053.50;5060297;28;20074;-83
2022/09/29 11:16:33;;;;;;;4.10;2.35;;;;;;;16.94;100.00;98060.34;5065356;28;20031;-83
2022/09/29 11:19:07;;;;;;;8.13;2.47;;;;;;;16.77;100.00;98060.53;5063158;28;20031;-83
2022/09/29 11:21:41;;;;;;;;;;;;;;;16.56;100.00;98067.63;5066309;28;20033;-83
2022/09/29 11:24:26;;;;;;;;;;;;;;;16.10;100.00;98079.53;5062488;28;19912;-84
2022/09/29 11:26:51;;;;;;;4.82;2.47;;;;;;;15.84;100.00;98074.03;5062480;28;20298;-84
2022/09/29 11:30:14;;;;;;;4.65;2.90;;;;;;;15.72;100.00;98078.66;5063123;28;20035;-83
2022/09/29 11:33:09;;;;;;;5.18;2.70;;;;;;;15.55;100.00;98076.16;5010769;28;20057;-83
2022/09/29 11:35:44;;;;;;;6.47;3.17;;;;;;;15.59;100.00;98073.81;5064951;28;20064;-84
2022/09/29 11:38:48;;;;;;;4.50;2.88;;;;;;;15.45;100.00;98079.50;5064397;28;20036;-83
2022/09/29 11:41:32;;;;;;;4.28;2.55;;;;;;;15.54;100.00;98080.66;5062845;28;20033;-83
2022/09/29 11:44:27;;;;;;;5.85;2.60;;;;;;;15.64;100.00;98076.50;5061795;28;20032;-84
2022/09/29 11:47:11;;;;;;;4.40;2.42;;;;;;;15.61;100.00;98079.66;5060846;28;20075;-84